• Join FlightAware (Why Join?)
  • Login
  • US Flag 
12:34AM EST


 

Airport Tracker/Info


-or-


 

Live Flight TrackerFlight Track Log ✈ UPS1121 ✈ 23-Apr-2013 ✈ KALB - KBDL

Flight Track Log - Related Links

Times and Time Zones

All times are in EDT time to prevent confusion due to time zone crossing. See the UPS1121 flight status page for this flight to view local times or setup timezone preferences in your user account.

Time Position Orientation Groundspeed Altitude Reporting Facility
EDT Latitude Longitude Course Direction KTS MPH feet Rate Location/Type
08:38PM 42.7403 -73.8083 158° South 153 176 1,500  Level Boston Center
08:39PM 42.6967 -73.7847 158° South 204 235 4,200 2,880 Climbing Boston Center
08:40PM 42.6475 -73.7131 133° Southeast 228 262 7,200 3,180 Climbing Boston Center
08:41PM 42.5900 -73.6331 134° Southeast 285 328 10,600 1,980 Climbing Boston Center
08:42PM 42.5325 -73.5531 134° Southeast 345 397 11,000 180 Climbing Boston Center
08:43PM 42.4647 -73.4561 133° Southeast 350 403 11,000  Level Boston Center
08:44PM 42.4008 -73.3594 132° Southeast 349 402 11,000  Level Boston Center
08:45PM 42.3350 -73.2631 133° Southeast 349 402 11,000 -60 Level Boston Center
08:46PM 42.2647 -73.1583 132° Southeast 346 398 10,900 -120 Descending Boston Center
08:46PM 42.2586 -73.1442 120° Southeast 342 394 10,900 -720 Level Boston Center
08:47PM 42.2069 -73.0736 135° Southeast 313 360 10,200 -1,200 Descending Boston Center
08:48PM 42.1469 -73.0058 140° Southeast 291 335 8,900 -1,380 Descending Boston Center
08:49PM 42.0742 -72.9686 159° South 281 323 7,500 -1,740 Descending Boston Center
08:50PM 41.9992 -72.9597 175° South 274 315 5,400 -1,500 Descending Boston Center
08:51PM 41.9261 -72.9619 181° South 260 299 4,500 -720 Descending Boston Center
08:52PM 41.8678 -72.9336 160° South 222 255 4,000 -600 Descending Boston Center
08:53PM 41.8203 -72.8831 142° Southeast 203 234 3,300 -600 Descending Boston Center
08:54PM 41.8286 -72.8386 76° East 152 175 2,800 -420 Descending Boston Center
08:55PM 41.8517 -72.8025 49° Northeast 129 148 2,500 -480 Descending Boston Center
08:56PM 41.8747 -72.7747 42° Northeast 115 132 1,900 -600 Descending Boston Center
08:57PM 41.8956 -72.7469 45° Northeast 110 127 1,300 -600 Descending Boston Center